createdAt,value
2022-08-29T00:00:17.911Z,7.70
2022-08-29T00:01:14.124Z,6.30
2022-08-29T00:02:13.148Z,6.60
2022-08-29T00:03:13.186Z,5.40
2022-08-29T00:04:13.123Z,6.20
2022-08-29T00:05:13.095Z,5.90
2022-08-29T00:06:13.069Z,6.00
2022-08-29T00:07:13.058Z,7.20
2022-08-29T00:08:13.247Z,9.00
2022-08-29T00:09:13.221Z,5.60
2022-08-29T00:10:13.026Z,8.10
2022-08-29T00:11:13.010Z,5.50
2022-08-29T00:12:13.026Z,6.20
2022-08-29T00:13:12.994Z,7.00
2022-08-29T00:14:21.033Z,6.70
2022-08-29T00:15:14.054Z,6.50
2022-08-29T00:16:13.023Z,8.10
2022-08-29T00:17:12.951Z,7.20
2022-08-29T00:18:13.149Z,6.50
2022-08-29T00:19:12.920Z,5.50
2022-08-29T00:20:12.913Z,9.40
2022-08-29T00:21:13.044Z,7.60
2022-08-29T00:22:12.891Z,6.50
2022-08-29T00:23:12.878Z,6.30
2022-08-29T00:24:12.870Z,5.30
2022-08-29T00:25:12.910Z,5.50
2022-08-29T00:26:12.842Z,7.00
2022-08-29T00:27:12.902Z,6.70
2022-08-29T00:28:13.163Z,6.70
2022-08-29T00:29:12.822Z,6.10
2022-08-29T00:30:12.819Z,8.20
2022-08-29T00:31:12.828Z,7.20
2022-08-29T00:32:12.842Z,6.80
2022-08-29T00:33:12.762Z,9.60
2022-08-29T00:34:12.767Z,5.90
2022-08-29T00:35:12.742Z,7.60
2022-08-29T00:36:12.746Z,6.20
2022-08-29T00:37:12.724Z,9.60
2022-08-29T00:38:13.039Z,4.50
2022-08-29T00:39:12.700Z,6.60
2022-08-29T00:40:12.752Z,8.20
2022-08-29T00:41:12.681Z,7.60
2022-08-29T00:42:12.661Z,6.70
2022-08-29T00:43:12.647Z,5.40
2022-08-29T00:44:12.701Z,7.40
2022-08-29T00:45:12.633Z,7.30
2022-08-29T00:46:12.664Z,5.80
2022-08-29T00:47:12.615Z,8.20
2022-08-29T00:48:12.703Z,9.70
2022-08-29T00:49:12.638Z,8.30
2022-08-29T00:50:12.606Z,6.10
2022-08-29T00:51:12.567Z,8.00
2022-08-29T00:52:12.543Z,8.40
2022-08-29T00:53:12.541Z,6.60
2022-08-29T00:54:12.578Z,6.60
2022-08-29T00:55:12.599Z,7.70
2022-08-29T00:56:12.504Z,6.70
2022-08-29T00:57:12.502Z,7.90
2022-08-29T00:58:14.342Z,9.00
2022-08-29T00:59:12.507Z,6.20
2022-08-29T01:00:12.471Z,7.20
2022-08-29T01:01:12.554Z,6.10
2022-08-29T01:02:12.494Z,6.20
2022-08-29T01:03:12.428Z,7.60
2022-08-29T01:04:15.688Z,6.50
2022-08-29T01:05:13.446Z,7.00
2022-08-29T01:06:12.388Z,8.20
2022-08-29T01:07:12.377Z,9.40
2022-08-29T01:08:12.368Z,5.90
2022-08-29T01:09:12.386Z,8.60
2022-08-29T01:10:13.247Z,7.90
2022-08-29T01:11:12.334Z,7.90
2022-08-29T01:12:12.328Z,6.50
2022-08-29T01:13:12.313Z,6.10
2022-08-29T01:14:12.325Z,5.50
2022-08-29T01:15:12.296Z,6.20
2022-08-29T01:16:12.401Z,6.00
2022-08-29T01:17:12.279Z,6.00
2022-08-29T01:18:12.256Z,6.50
2022-08-29T01:19:12.260Z,5.30
2022-08-29T01:20:12.242Z,6.50
2022-08-29T01:21:12.227Z,5.90
2022-08-29T01:22:12.313Z,6.70
2022-08-29T01:23:12.202Z,5.00
2022-08-29T01:24:12.209Z,5.50
2022-08-29T01:25:12.228Z,5.80
2022-08-29T01:26:12.160Z,6.90
2022-08-29T01:27:12.160Z,6.60
2022-08-29T01:28:12.192Z,8.60
2022-08-29T01:29:12.142Z,7.00
2022-08-29T01:30:12.114Z,6.40
2022-08-29T01:31:12.130Z,6.30
2022-08-29T01:32:12.120Z,6.50
2022-08-29T01:33:12.236Z,6.70
2022-08-29T01:34:12.074Z,7.60
2022-08-29T01:35:12.069Z,9.90
2022-08-29T01:36:12.052Z,6.70
2022-08-29T01:37:12.040Z,7.60
2022-08-29T01:38:12.039Z,6.60
2022-08-29T01:39:12.173Z,7.40
2022-08-29T01:40:12.097Z,7.30
2022-08-29T01:41:12.007Z,5.80
2022-08-29T01:42:11.985Z,6.40
2022-08-29T01:43:11.987Z,5.50
2022-08-29T01:44:11.971Z,6.50
2022-08-29T01:45:11.996Z,8.10
2022-08-29T01:46:12.062Z,10.20
2022-08-29T01:47:11.947Z,6.20
2022-08-29T01:48:11.927Z,5.50
2022-08-29T01:49:11.916Z,9.30
2022-08-29T01:50:12.038Z,7.50
2022-08-29T01:51:11.887Z,9.60
2022-08-29T01:52:11.873Z,6.40
2022-08-29T01:53:11.873Z,5.60
2022-08-29T01:54:11.884Z,8.00
2022-08-29T01:55:11.835Z,9.20
2022-08-29T01:56:11.901Z,6.10
2022-08-29T01:57:13.126Z,6.30
2022-08-29T01:58:11.816Z,6.40
2022-08-29T01:59:11.791Z,6.60
2022-08-29T02:00:11.785Z,6.10
2022-08-29T02:01:11.888Z,7.10
2022-08-29T02:02:11.869Z,4.70
2022-08-29T02:03:11.756Z,8.80
2022-08-29T02:04:11.731Z,5.40
2022-08-29T02:05:11.727Z,4.60
2022-08-29T02:06:11.757Z,5.20
2022-08-29T02:07:12.836Z,8.30
2022-08-29T02:08:11.815Z,5.20
2022-08-29T02:09:11.685Z,6.10
2022-08-29T02:10:11.667Z,5.40
2022-08-29T02:11:11.678Z,8.50
2022-08-29T02:12:11.671Z,6.20
2022-08-29T02:13:11.692Z,6.30
2022-08-29T02:14:19.062Z,6.50
2022-08-29T02:15:12.645Z,5.80
2022-08-29T02:16:11.645Z,6.30
2022-08-29T02:17:11.598Z,6.60
2022-08-29T02:18:11.870Z,6.30
2022-08-29T02:19:11.569Z,5.70
2022-08-29T02:20:11.549Z,5.90
2022-08-29T02:21:11.568Z,4.10
2022-08-29T02:22:11.542Z,7.50
2022-08-29T02:23:29.872Z,4.90
2022-08-29T02:24:25.047Z,8.20
2022-08-29T02:25:12.494Z,6.00
2022-08-29T02:26:11.513Z,4.70
2022-08-29T02:27:11.487Z,6.70
2022-08-29T02:28:11.482Z,5.90
2022-08-29T02:29:11.448Z,6.50
2022-08-29T02:30:11.501Z,5.10
2022-08-29T02:31:11.521Z,6.20
2022-08-29T02:32:11.431Z,6.20
2022-08-29T02:33:11.411Z,7.60
2022-08-29T02:34:11.595Z,6.10
2022-08-29T02:35:11.432Z,4.80
2022-08-29T02:36:11.402Z,6.00
2022-08-29T02:37:11.372Z,7.30
2022-08-29T02:38:11.406Z,5.80
2022-08-29T02:39:11.337Z,5.40
2022-08-29T02:40:11.377Z,4.80
2022-08-29T02:41:14.266Z,4.50
2022-08-29T02:42:11.309Z,5.80
2022-08-29T02:43:11.315Z,9.30
2022-08-29T02:44:11.285Z,4.70
2022-08-29T02:45:11.838Z,5.90
2022-08-29T02:46:11.383Z,5.60
2022-08-29T02:47:11.346Z,6.10
2022-08-29T02:48:11.265Z,5.40
2022-08-29T02:49:11.224Z,6.20
2022-08-29T02:50:11.242Z,5.70
2022-08-29T02:51:11.208Z,5.20
2022-08-29T02:52:11.273Z,6.70
2022-08-29T02:53:11.184Z,5.40
2022-08-29T02:54:11.167Z,4.80
2022-08-29T02:55:11.169Z,8.00
2022-08-29T02:56:14.462Z,6.20
2022-08-29T02:57:11.147Z,6.80
2022-08-29T02:58:11.472Z,5.50
2022-08-29T02:59:11.112Z,5.60
2022-08-29T03:00:11.118Z,5.80
2022-08-29T03:01:11.121Z,7.30
2022-08-29T03:02:11.175Z,7.60
2022-08-29T03:03:11.068Z,8.00
2022-08-29T03:04:11.158Z,5.50
2022-08-29T03:05:11.066Z,5.10
2022-08-29T03:06:11.045Z,6.40
2022-08-29T03:07:11.055Z,7.90
2022-08-29T03:08:11.064Z,6.00
2022-08-29T03:09:10.999Z,6.00
2022-08-29T03:10:11.039Z,8.30
2022-08-29T03:11:10.989Z,5.10
2022-08-29T03:12:10.964Z,5.90
2022-08-29T03:13:10.962Z,7.10
2022-08-29T03:14:10.957Z,5.80
2022-08-29T03:15:10.985Z,6.50
2022-08-29T03:16:10.956Z,4.90
2022-08-29T03:17:10.904Z,5.70
2022-08-29T03:18:11.010Z,5.80
2022-08-29T03:19:10.882Z,8.00
2022-08-29T03:20:10.874Z,4.70
2022-08-29T03:21:10.958Z,4.60
2022-08-29T03:22:10.848Z,5.70
2022-08-29T03:23:10.841Z,6.20
2022-08-29T03:24:10.838Z,6.80
2022-08-29T03:25:10.828Z,6.30
2022-08-29T03:26:10.799Z,6.70
2022-08-29T03:27:10.860Z,5.80
2022-08-29T03:28:10.796Z,8.20
2022-08-29T03:29:10.771Z,7.90
2022-08-29T03:30:11.041Z,6.40
2022-08-29T03:31:10.845Z,5.60
2022-08-29T03:32:10.786Z,4.40
2022-08-29T03:33:11.934Z,8.70
2022-08-29T03:34:10.732Z,5.00
2022-08-29T03:35:10.707Z,5.40
2022-08-29T03:36:14.279Z,6.90
2022-08-29T03:37:10.674Z,6.00
2022-08-29T03:38:10.844Z,8.90
2022-08-29T03:39:10.679Z,6.90
2022-08-29T03:40:10.703Z,7.60
2022-08-29T03:41:10.633Z,5.80
2022-08-29T03:42:10.619Z,6.90
2022-08-29T03:43:10.623Z,7.50
2022-08-29T03:44:10.647Z,8.10
2022-08-29T03:45:10.587Z,6.20
2022-08-29T03:46:10.609Z,8.90
2022-08-29T03:47:10.564Z,6.70
2022-08-29T03:48:10.678Z,7.80
2022-08-29T03:49:10.568Z,8.20
2022-08-29T03:50:10.533Z,6.70
2022-08-29T03:51:10.522Z,6.80
2022-08-29T03:52:10.571Z,4.70
2022-08-29T03:53:10.499Z,8.20
2022-08-29T03:54:10.511Z,5.80
2022-08-29T03:55:10.651Z,5.30
2022-08-29T03:56:10.877Z,6.30
2022-08-29T03:57:11.452Z,7.40
2022-08-29T03:58:10.456Z,6.50
2022-08-29T03:59:10.451Z,7.00
2022-08-29T04:00:10.437Z,6.60
2022-08-29T04:01:10.459Z,9.40
2022-08-29T04:02:10.506Z,6.50
2022-08-29T04:03:10.447Z,7.80
2022-08-29T04:04:10.379Z,9.20
2022-08-29T04:05:10.363Z,5.90
2022-08-29T04:06:10.351Z,7.40
2022-08-29T04:07:10.415Z,8.70
2022-08-29T04:08:10.371Z,8.60
2022-08-29T04:09:10.314Z,5.80
2022-08-29T04:10:10.302Z,5.60
2022-08-29T04:11:10.292Z,6.20
2022-08-29T04:12:10.308Z,6.90
2022-08-29T04:13:10.282Z,6.40
2022-08-29T04:14:10.270Z,8.60
2022-08-29T04:15:10.246Z,9.00
2022-08-29T04:16:10.302Z,7.70
2022-08-29T04:17:10.237Z,7.40
2022-08-29T04:18:10.254Z,7.10
2022-08-29T04:19:10.213Z,8.30
2022-08-29T04:20:10.194Z,6.80
2022-08-29T04:21:10.178Z,7.00
2022-08-29T04:22:10.183Z,8.10
2022-08-29T04:23:10.194Z,7.40
2022-08-29T04:24:10.207Z,8.60
2022-08-29T04:25:10.130Z,6.70
2022-08-29T04:26:31.640Z,5.10
2022-08-29T04:27:11.113Z,8.30
2022-08-29T04:28:10.098Z,6.90
2022-08-29T04:29:10.160Z,7.80
2022-08-29T04:30:10.078Z,8.70
2022-08-29T04:31:10.128Z,6.50
2022-08-29T04:32:10.050Z,6.20
2022-08-29T04:33:22.153Z,5.20
2022-08-29T04:34:11.036Z,13.40
2022-08-29T04:35:10.083Z,8.60
2022-08-29T04:36:14.806Z,7.50
2022-08-29T04:37:11.016Z,6.80
2022-08-29T04:38:09.986Z,6.70
2022-08-29T04:39:09.969Z,8.30
2022-08-29T04:40:09.982Z,5.30
2022-08-29T04:41:10.019Z,5.70
2022-08-29T04:42:09.977Z,6.10
2022-08-29T04:43:09.925Z,5.60
2022-08-29T04:44:09.915Z,5.80
2022-08-29T04:45:09.907Z,7.40
2022-08-29T04:46:16.338Z,6.80
2022-08-29T04:47:10.913Z,8.50
2022-08-29T04:48:10.039Z,7.90
2022-08-29T04:49:09.864Z,6.30
2022-08-29T04:50:09.845Z,5.10
2022-08-29T04:51:09.837Z,6.80
2022-08-29T04:52:09.825Z,6.00
2022-08-29T04:53:09.835Z,8.80
2022-08-29T04:54:09.806Z,8.10
2022-08-29T04:55:09.799Z,8.50
2022-08-29T04:56:09.788Z,9.50
2022-08-29T04:57:09.765Z,7.20
2022-08-29T04:58:10.246Z,6.50
2022-08-29T04:59:09.968Z,5.00
2022-08-29T05:00:09.734Z,5.50
2022-08-29T05:01:09.799Z,6.00
2022-08-29T05:02:09.744Z,6.80
2022-08-29T05:03:09.887Z,9.90
2022-08-29T05:04:14.147Z,7.20
2022-08-29T05:05:09.676Z,6.10
2022-08-29T05:06:09.673Z,6.80
2022-08-29T05:07:09.650Z,5.50
2022-08-29T05:08:09.653Z,8.30
2022-08-29T05:09:09.674Z,7.30
2022-08-29T05:10:09.623Z,9.00
2022-08-29T05:11:09.617Z,6.80
2022-08-29T05:12:10.332Z,10.30
2022-08-29T05:13:09.585Z,7.10
2022-08-29T05:14:09.646Z,6.60
2022-08-29T05:15:09.588Z,10.90
2022-08-29T05:16:09.602Z,7.20
2022-08-29T05:17:09.553Z,10.00
2022-08-29T05:18:09.530Z,10.00
2022-08-29T05:19:09.745Z,7.50
2022-08-29T05:20:09.528Z,14.00
2022-08-29T05:21:09.499Z,15.60
2022-08-29T05:22:09.488Z,13.80
2022-08-29T05:23:09.481Z,10.80
2022-08-29T05:24:09.470Z,19.10
2022-08-29T05:25:09.649Z,19.70
2022-08-29T05:26:09.438Z,12.70
2022-08-29T05:27:09.429Z,6.40
2022-08-29T05:28:09.422Z,8.70
2022-08-29T05:29:09.444Z,7.40
2022-08-29T05:30:09.405Z,7.30
2022-08-29T05:31:13.488Z,12.70
2022-08-29T05:32:09.364Z,10.70
2022-08-29T05:33:09.361Z,10.80
2022-08-29T05:34:31.856Z,11.20
2022-08-29T05:35:10.378Z,13.30
2022-08-29T05:36:09.334Z,13.00
2022-08-29T05:37:09.330Z,12.10
2022-08-29T05:38:09.628Z,27.00
2022-08-29T05:39:09.359Z,22.20
2022-08-29T05:40:09.322Z,14.10
2022-08-29T05:41:09.333Z,15.20
2022-08-29T05:42:09.250Z,10.20
2022-08-29T05:43:09.254Z,11.40
2022-08-29T05:44:09.255Z,16.70
2022-08-29T05:45:09.231Z,16.70
2022-08-29T05:46:09.243Z,20.40
2022-08-29T05:47:09.254Z,13.70
2022-08-29T05:48:09.228Z,12.50
2022-08-29T05:49:09.194Z,15.10
2022-08-29T05:50:09.186Z,17.70
2022-08-29T05:51:09.171Z,12.00
2022-08-29T05:52:09.200Z,13.90
2022-08-29T05:53:09.135Z,10.40
2022-08-29T05:54:09.138Z,9.80
2022-08-29T05:55:09.109Z,10.40
2022-08-29T05:56:09.099Z,7.20
2022-08-29T05:57:09.083Z,9.80
2022-08-29T05:58:09.122Z,8.00
2022-08-29T05:59:09.080Z,8.90
2022-08-29T06:00:09.070Z,8.50
2022-08-29T06:01:09.039Z,8.90
2022-08-29T06:02:09.097Z,13.20
2022-08-29T06:03:09.173Z,9.70
2022-08-29T06:04:09.153Z,9.60
2022-08-29T06:05:09.000Z,9.70
2022-08-29T06:06:08.986Z,7.50
2022-08-29T06:07:08.980Z,11.50
2022-08-29T06:08:09.728Z,9.40
2022-08-29T06:09:08.986Z,8.20
2022-08-29T06:10:09.107Z,10.50
2022-08-29T06:11:08.950Z,9.40
2022-08-29T06:12:08.928Z,10.20
2022-08-29T06:13:08.926Z,7.40
2022-08-29T06:14:08.909Z,8.90
2022-08-29T06:15:08.903Z,6.60
2022-08-29T06:16:09.090Z,9.50
2022-08-29T06:17:09.330Z,7.70
2022-08-29T06:18:08.990Z,11.60
2022-08-29T06:19:08.889Z,10.50
2022-08-29T06:20:08.832Z,8.60
2022-08-29T06:21:08.838Z,8.00
2022-08-29T06:22:10.041Z,7.10
2022-08-29T06:23:08.797Z,10.10
2022-08-29T06:24:08.786Z,8.50
2022-08-29T06:25:34.996Z,7.10
2022-08-29T06:26:09.765Z,7.00
2022-08-29T06:27:08.771Z,9.90
2022-08-29T06:28:08.799Z,7.20
2022-08-29T06:29:08.728Z,11.00
2022-08-29T06:30:08.737Z,13.20
2022-08-29T06:31:08.736Z,10.00
2022-08-29T06:32:08.701Z,7.90
2022-08-29T06:33:08.712Z,8.00
2022-08-29T06:34:08.664Z,11.20
2022-08-29T06:35:08.654Z,9.50
2022-08-29T06:36:08.653Z,7.90
2022-08-29T06:37:08.649Z,9.00
2022-08-29T06:38:13.304Z,4.70
2022-08-29T06:39:09.653Z,7.60
2022-08-29T06:40:08.679Z,7.60
2022-08-29T06:41:08.592Z,8.00
2022-08-29T06:42:08.587Z,8.40
2022-08-29T06:43:08.582Z,11.50
2022-08-29T06:44:08.554Z,8.10
2022-08-29T06:45:08.626Z,10.30
2022-08-29T06:46:08.598Z,10.10
2022-08-29T06:47:08.522Z,6.40
2022-08-29T06:48:08.530Z,8.90
2022-08-29T06:49:08.561Z,10.70
2022-08-29T06:50:08.487Z,7.40
2022-08-29T06:51:08.484Z,9.30
2022-08-29T06:52:08.464Z,9.10
2022-08-29T06:53:26.353Z,6.60
2022-08-29T06:54:09.462Z,8.30
2022-08-29T06:55:08.469Z,9.00
2022-08-29T06:56:11.317Z,8.50
2022-08-29T06:57:08.420Z,12.00
2022-08-29T06:58:08.399Z,9.90
2022-08-29T06:59:08.420Z,7.20
2022-08-29T07:00:21.771Z,7.70
2022-08-29T07:01:09.386Z,6.70
2022-08-29T07:02:08.435Z,8.20
2022-08-29T07:03:08.545Z,7.10
2022-08-29T07:04:14.355Z,8.00
2022-08-29T07:05:09.372Z,7.70
2022-08-29T07:06:08.405Z,7.60
2022-08-29T07:07:08.341Z,6.40
2022-08-29T07:08:08.288Z,7.50
2022-08-29T07:09:08.281Z,7.70
2022-08-29T07:10:08.282Z,7.00
2022-08-29T07:11:08.254Z,9.10
2022-08-29T07:12:08.254Z,6.60
2022-08-29T07:13:08.370Z,8.10
2022-08-29T07:14:08.235Z,10.30
2022-08-29T07:15:08.226Z,6.80
2022-08-29T07:16:08.429Z,6.30
2022-08-29T07:17:08.188Z,6.80
2022-08-29T07:18:08.261Z,8.40
2022-08-29T07:19:08.734Z,9.20
2022-08-29T07:20:08.160Z,10.70
2022-08-29T07:21:08.147Z,8.40
2022-08-29T07:22:08.822Z,9.30
2022-08-29T07:23:08.151Z,14.40
2022-08-29T07:24:08.152Z,8.30
2022-08-29T07:25:08.128Z,9.10
2022-08-29T07:26:08.091Z,7.00
2022-08-29T07:27:08.479Z,8.40
2022-08-29T07:28:08.102Z,9.70
2022-08-29T07:29:08.058Z,8.50
2022-08-29T07:30:08.066Z,7.90
2022-08-29T07:31:08.123Z,7.20
2022-08-29T07:32:08.018Z,7.40
2022-08-29T07:33:08.147Z,10.80
2022-08-29T07:34:08.025Z,7.30
2022-08-29T07:35:11.557Z,7.30
2022-08-29T07:36:08.990Z,8.90
2022-08-29T07:37:07.986Z,7.30
2022-08-29T07:38:08.069Z,7.30
2022-08-29T07:39:08.633Z,8.40
2022-08-29T07:40:07.993Z,7.40
2022-08-29T07:41:07.916Z,8.20
2022-08-29T07:42:07.903Z,5.70
2022-08-29T07:43:08.069Z,5.40
2022-08-29T07:44:07.914Z,5.10
2022-08-29T07:45:07.914Z,6.40
2022-08-29T07:46:07.908Z,8.30
2022-08-29T07:47:07.871Z,8.20
2022-08-29T07:48:10.089Z,9.10
2022-08-29T07:49:07.844Z,9.70
2022-08-29T07:50:07.821Z,8.50
2022-08-29T07:51:10.496Z,16.40
2022-08-29T07:52:07.834Z,11.70
2022-08-29T07:53:07.889Z,9.70
2022-08-29T07:54:07.777Z,7.30
2022-08-29T07:55:07.806Z,7.70
2022-08-29T07:56:07.769Z,9.60
2022-08-29T07:57:07.821Z,9.80
2022-08-29T07:58:07.824Z,10.20
2022-08-29T07:59:07.718Z,12.20
2022-08-29T08:00:07.712Z,7.60
2022-08-29T08:01:07.736Z,10.00
2022-08-29T08:02:07.874Z,8.50
2022-08-29T08:03:07.778Z,8.90
2022-08-29T08:04:07.706Z,9.70
2022-08-29T08:05:07.672Z,8.60
2022-08-29T08:06:07.666Z,6.40
2022-08-29T08:07:13.538Z,8.80
2022-08-29T08:08:15.348Z,7.40
2022-08-29T08:09:08.613Z,7.30
2022-08-29T08:10:07.614Z,8.70
2022-08-29T08:11:07.598Z,7.80
2022-08-29T08:12:08.388Z,8.40
2022-08-29T08:13:07.659Z,7.40
2022-08-29T08:14:07.634Z,8.50
2022-08-29T08:15:07.563Z,8.10
2022-08-29T08:16:07.559Z,8.00
2022-08-29T08:17:07.760Z,7.00
2022-08-29T08:18:07.536Z,12.70
2022-08-29T08:19:07.778Z,7.00
2022-08-29T08:20:07.521Z,7.10
2022-08-29T08:21:07.496Z,8.80
2022-08-29T08:22:07.491Z,6.00
2022-08-29T08:23:09.088Z,9.90
2022-08-29T08:24:07.461Z,7.80
2022-08-29T08:25:07.470Z,8.80
2022-08-29T08:26:07.436Z,7.20
2022-08-29T08:27:07.421Z,4.40
2022-08-29T08:28:07.498Z,8.50
2022-08-29T08:29:07.403Z,8.70
2022-08-29T08:30:07.399Z,6.50
2022-08-29T08:31:07.468Z,7.70
2022-08-29T08:32:07.412Z,7.60
2022-08-29T08:33:07.513Z,8.70
2022-08-29T08:34:07.363Z,8.20
2022-08-29T08:35:07.407Z,7.20
2022-08-29T08:36:07.332Z,7.50
2022-08-29T08:37:07.368Z,6.70
2022-08-29T08:38:08.341Z,6.50
2022-08-29T08:39:07.355Z,8.40
2022-08-29T08:40:07.395Z,8.80
2022-08-29T08:41:07.312Z,7.30
2022-08-29T08:42:07.315Z,7.00
2022-08-29T08:43:07.306Z,8.30
2022-08-29T08:44:07.385Z,8.10
2022-08-29T08:45:07.268Z,5.60
2022-08-29T08:46:07.333Z,8.60
2022-08-29T08:47:07.243Z,7.00
2022-08-29T08:48:07.246Z,8.10
2022-08-29T08:49:07.205Z,7.50
2022-08-29T08:50:07.255Z,8.50
2022-08-29T08:51:07.194Z,9.40
2022-08-29T08:52:07.189Z,5.70
2022-08-29T08:53:07.206Z,5.00
2022-08-29T08:54:07.153Z,7.90
2022-08-29T08:55:07.141Z,6.10
2022-08-29T08:56:07.129Z,5.70
2022-08-29T08:57:07.142Z,4.50
2022-08-29T08:58:07.112Z,3.90
2022-08-29T08:59:07.259Z,3.90
2022-08-29T09:00:07.103Z,7.70
2022-08-29T09:01:07.132Z,5.00
2022-08-29T09:02:07.581Z,5.20
2022-08-29T09:03:07.126Z,5.90
2022-08-29T09:04:07.063Z,4.30
2022-08-29T09:05:07.058Z,5.30
2022-08-29T09:06:07.034Z,8.60
2022-08-29T09:07:07.024Z,6.00
2022-08-29T09:08:07.067Z,6.70
2022-08-29T09:09:07.016Z,4.30
2022-08-29T09:10:07.002Z,5.50
2022-08-29T09:11:06.996Z,6.60
2022-08-29T09:12:06.974Z,5.20
2022-08-29T09:13:06.997Z,4.50
2022-08-29T09:14:07.031Z,6.50
2022-08-29T09:15:06.948Z,8.20
2022-08-29T09:16:07.116Z,4.70
2022-08-29T09:17:06.932Z,4.20
2022-08-29T09:18:07.278Z,5.60
2022-08-29T09:19:06.912Z,4.00
2022-08-29T09:20:06.913Z,4.10
2022-08-29T09:21:30.026Z,5.80
2022-08-29T09:22:07.877Z,3.30
2022-08-29T09:23:06.879Z,4.70
2022-08-29T09:24:06.935Z,3.80
2022-08-29T09:25:06.884Z,5.70
2022-08-29T09:26:06.839Z,5.80
2022-08-29T09:27:06.840Z,4.40
2022-08-29T09:28:06.820Z,4.40
2022-08-29T09:29:06.848Z,4.00
2022-08-29T09:30:06.794Z,4.40
2022-08-29T09:31:06.792Z,3.90
2022-08-29T09:32:06.882Z,4.70
2022-08-29T09:33:06.787Z,5.30
2022-08-29T09:34:06.812Z,4.50
2022-08-29T09:35:09.605Z,3.60
2022-08-29T09:36:06.815Z,5.70
2022-08-29T09:37:06.770Z,5.90
2022-08-29T09:38:06.732Z,5.00
2022-08-29T09:39:06.709Z,4.00
2022-08-29T09:40:06.790Z,5.20
2022-08-29T09:41:06.704Z,5.10
2022-08-29T09:42:06.735Z,5.10
2022-08-29T09:43:06.681Z,3.00
2022-08-29T09:44:06.662Z,3.50
2022-08-29T09:45:06.659Z,3.30
2022-08-29T09:46:06.729Z,3.80
2022-08-29T09:47:06.667Z,3.80
2022-08-29T09:48:06.633Z,3.70
2022-08-29T09:49:06.611Z,4.00
2022-08-29T09:50:06.617Z,3.60
2022-08-29T09:51:06.594Z,3.40
2022-08-29T09:52:06.636Z,3.80
2022-08-29T09:53:08.560Z,2.70
2022-08-29T09:54:07.597Z,2.80
2022-08-29T09:55:06.567Z,5.40
2022-08-29T09:56:06.558Z,3.80
2022-08-29T09:57:06.567Z,4.00
2022-08-29T09:58:06.545Z,4.00
2022-08-29T09:59:06.529Z,4.90
2022-08-29T10:00:06.522Z,4.30
2022-08-29T10:01:06.687Z,4.80
2022-08-29T10:02:06.601Z,4.70
2022-08-29T10:03:06.505Z,3.70
2022-08-29T10:04:06.498Z,4.20
2022-08-29T10:05:06.508Z,3.80
2022-08-29T10:06:07.454Z,6.00
2022-08-29T10:07:06.450Z,3.50
2022-08-29T10:08:06.477Z,4.50
2022-08-29T10:09:06.431Z,4.90
2022-08-29T10:10:06.426Z,3.70
2022-08-29T10:11:06.424Z,4.40
2022-08-29T10:12:06.447Z,3.80
2022-08-29T10:13:06.397Z,5.60
2022-08-29T10:14:06.380Z,6.00
2022-08-29T10:15:07.376Z,4.20
2022-08-29T10:16:06.425Z,3.80
2022-08-29T10:17:06.357Z,4.90
2022-08-29T10:18:06.424Z,4.70
2022-08-29T10:19:06.332Z,7.20
2022-08-29T10:20:06.315Z,5.30
2022-08-29T10:21:06.307Z,6.60
2022-08-29T10:22:06.322Z,5.80
2022-08-29T10:23:06.296Z,3.90
2022-08-29T10:24:06.322Z,5.70
2022-08-29T10:25:06.298Z,4.30
2022-08-29T10:26:06.291Z,4.40
2022-08-29T10:27:06.317Z,4.40
2022-08-29T10:28:06.243Z,4.80
2022-08-29T10:29:06.278Z,3.60
2022-08-29T10:30:06.248Z,3.20
2022-08-29T10:31:06.212Z,5.20
2022-08-29T10:32:06.288Z,4.60
2022-08-29T10:33:06.199Z,4.60
2022-08-29T10:34:06.212Z,5.30
2022-08-29T10:35:06.177Z,3.70
2022-08-29T10:36:06.176Z,5.50
2022-08-29T10:37:06.199Z,4.70
2022-08-29T10:38:06.178Z,5.00
2022-08-29T10:39:06.152Z,6.60
2022-08-29T10:40:06.443Z,4.60
2022-08-29T10:41:06.124Z,4.40
2022-08-29T10:42:06.114Z,3.50
2022-08-29T10:43:06.131Z,4.00
2022-08-29T10:44:06.177Z,5.20
2022-08-29T10:45:06.107Z,4.80
2022-08-29T10:46:06.237Z,4.90
2022-08-29T10:47:06.081Z,5.70
2022-08-29T10:48:06.062Z,5.20
2022-08-29T10:49:06.069Z,4.20
2022-08-29T10:50:07.758Z,3.90
2022-08-29T10:51:06.020Z,3.50
2022-08-29T10:52:06.075Z,5.80
2022-08-29T10:53:06.006Z,4.60
2022-08-29T10:54:06.012Z,3.50
2022-08-29T10:55:06.825Z,4.10
2022-08-29T10:56:07.009Z,5.20
2022-08-29T10:57:06.004Z,4.20
2022-08-29T10:58:05.983Z,5.60
2022-08-29T10:59:07.010Z,3.50
2022-08-29T11:00:05.942Z,4.50
2022-08-29T11:01:09.197Z,3.60
2022-08-29T11:02:05.923Z,5.40
2022-08-29T11:03:05.965Z,3.60
2022-08-29T11:04:06.088Z,4.30
2022-08-29T11:05:05.893Z,3.30
2022-08-29T11:06:05.880Z,3.60
2022-08-29T11:07:05.893Z,3.70
2022-08-29T11:08:05.855Z,5.00
2022-08-29T11:09:05.900Z,3.60
2022-08-29T11:10:05.842Z,3.10
2022-08-29T11:11:05.836Z,4.00
2022-08-29T11:12:05.859Z,3.50
2022-08-29T11:13:05.813Z,3.40
2022-08-29T11:14:06.264Z,3.00
2022-08-29T11:15:05.802Z,3.50
2022-08-29T11:16:05.914Z,2.90
2022-08-29T11:17:05.775Z,4.90
2022-08-29T11:18:05.767Z,4.30
2022-08-29T11:19:05.808Z,3.40
2022-08-29T11:20:05.754Z,3.80
2022-08-29T11:21:05.738Z,4.60
2022-08-29T11:22:05.738Z,4.80
2022-08-29T11:23:05.716Z,2.90
2022-08-29T11:24:05.762Z,5.10
2022-08-29T11:25:05.701Z,4.10
2022-08-29T11:26:05.704Z,4.20
2022-08-29T11:27:05.675Z,3.70
2022-08-29T11:28:05.679Z,4.50
2022-08-29T11:29:05.716Z,3.80
2022-08-29T11:30:05.660Z,3.10
2022-08-29T11:31:05.705Z,2.90
2022-08-29T11:32:05.677Z,3.70
2022-08-29T11:33:05.619Z,3.40
2022-08-29T11:34:05.613Z,4.10
2022-08-29T11:35:05.654Z,3.50
2022-08-29T11:36:05.611Z,3.80
2022-08-29T11:37:05.593Z,3.10
2022-08-29T11:38:05.564Z,4.40
2022-08-29T11:39:05.567Z,5.90
2022-08-29T11:40:05.723Z,2.80
2022-08-29T11:42:06.584Z,3.00
2022-08-29T11:43:13.102Z,5.70
2022-08-29T11:44:06.524Z,3.20
2022-08-29T11:45:05.508Z,3.70
2022-08-29T11:46:05.504Z,2.50
2022-08-29T11:47:06.169Z,3.80
2022-08-29T11:48:05.478Z,3.90
2022-08-29T11:49:05.474Z,3.90
2022-08-29T11:50:05.466Z,3.20
2022-08-29T11:51:05.447Z,2.80
2022-08-29T11:52:05.441Z,3.10
2022-08-29T11:53:05.441Z,6.70
2022-08-29T11:54:05.426Z,5.60
2022-08-29T11:55:05.388Z,3.30
2022-08-29T11:56:05.410Z,2.40
2022-08-29T11:57:05.387Z,3.70
2022-08-29T11:58:08.834Z,3.60
2022-08-29T11:59:06.349Z,3.00
2022-08-29T12:00:05.329Z,3.50
2022-08-29T12:01:05.321Z,3.10
2022-08-29T12:02:05.483Z,4.50
2022-08-29T12:03:14.972Z,4.40
2022-08-29T12:04:06.307Z,3.10
2022-08-29T12:05:05.289Z,3.70
2022-08-29T12:06:05.274Z,2.70
2022-08-29T12:07:05.297Z,2.60
2022-08-29T12:08:26.181Z,5.00
2022-08-29T12:09:08.109Z,3.50
2022-08-29T12:10:06.233Z,4.50
2022-08-29T12:11:05.240Z,2.90
2022-08-29T12:12:05.861Z,3.80
2022-08-29T12:13:05.240Z,3.50
2022-08-29T12:14:05.203Z,4.70
2022-08-29T12:15:05.181Z,3.20
2022-08-29T12:16:05.170Z,3.30
2022-08-29T12:17:05.154Z,2.50
2022-08-29T12:18:05.143Z,5.10
2022-08-29T12:19:05.118Z,3.30
2022-08-29T12:20:05.129Z,3.90
2022-08-29T12:21:05.120Z,3.40
2022-08-29T12:22:05.105Z,6.10
2022-08-29T12:23:06.123Z,3.30
2022-08-29T12:24:05.070Z,2.90
2022-08-29T12:25:05.058Z,2.40
2022-08-29T12:26:21.636Z,2.70
2022-08-29T12:27:06.033Z,2.30
2022-08-29T12:28:06.069Z,4.30
2022-08-29T12:29:10.518Z,2.80
2022-08-29T12:30:06.004Z,2.70
2022-08-29T12:31:05.003Z,3.00
2022-08-29T12:32:23.518Z,3.00
2022-08-29T12:33:05.980Z,4.40
2022-08-29T12:34:04.957Z,4.90
2022-08-29T12:35:04.993Z,4.40
2022-08-29T12:36:04.966Z,2.90
2022-08-29T12:37:04.943Z,3.10
2022-08-29T12:38:04.920Z,2.70
2022-08-29T12:39:04.906Z,4.00
2022-08-29T12:40:04.964Z,2.30
2022-08-29T12:41:04.935Z,3.20
2022-08-29T12:42:04.878Z,2.80
2022-08-29T12:43:04.865Z,2.40
2022-08-29T12:44:04.861Z,2.70
2022-08-29T12:45:04.867Z,4.20
2022-08-29T12:46:04.845Z,4.00
2022-08-29T12:47:04.928Z,2.90
2022-08-29T12:48:04.842Z,2.90
2022-08-29T12:49:04.840Z,3.10
2022-08-29T12:50:04.810Z,3.20
2022-08-29T12:51:04.832Z,3.10
2022-08-29T12:52:04.786Z,3.90
2022-08-29T12:53:04.774Z,2.90
2022-08-29T12:54:04.781Z,3.20
2022-08-29T12:55:04.773Z,3.20
2022-08-29T12:56:04.722Z,2.20
2022-08-29T12:57:04.784Z,2.50
2022-08-29T12:58:04.720Z,4.60
2022-08-29T12:59:04.758Z,2.90
2022-08-29T13:00:04.722Z,4.60
2022-08-29T13:01:04.797Z,4.90
2022-08-29T13:02:04.701Z,3.30
2022-08-29T13:03:04.743Z,3.50
2022-08-29T13:04:04.722Z,4.60
2022-08-29T13:05:04.630Z,2.70
2022-08-29T13:06:04.668Z,3.50
2022-08-29T13:07:04.612Z,2.80
2022-08-29T13:08:06.409Z,4.10
2022-08-29T13:09:04.638Z,3.40
2022-08-29T13:10:04.570Z,3.30
2022-08-29T13:11:04.559Z,2.70
2022-08-29T13:12:04.547Z,3.20
2022-08-29T13:13:04.530Z,3.50
2022-08-29T13:14:04.546Z,2.20
2022-08-29T13:15:04.513Z,3.40
2022-08-29T13:16:04.551Z,2.50
2022-08-29T13:17:04.489Z,3.40